createdAt,value
2023-04-24T00:02:06.025Z,11.50
2023-04-24T00:04:34.598Z,11.50
2023-04-24T00:07:02.717Z,11.40
2023-04-24T00:09:30.922Z,11.40
2023-04-24T00:11:59.087Z,11.40
2023-04-24T00:14:27.102Z,11.50
2023-04-24T00:16:55.180Z,11.50
2023-04-24T00:19:23.621Z,11.50
2023-04-24T00:21:52.315Z,11.40
2023-04-24T00:24:20.620Z,11.40
2023-04-24T00:26:48.776Z,11.30
2023-04-24T00:29:18.088Z,11.30
2023-04-24T00:31:48.615Z,11.30
2023-04-24T00:34:16.916Z,11.30
2023-04-24T00:36:44.907Z,11.30
2023-04-24T00:39:13.036Z,11.30
2023-04-24T00:41:41.107Z,11.20
2023-04-24T00:44:09.658Z,11.20
2023-04-24T00:46:38.230Z,11.20
2023-04-24T00:49:07.192Z,11.20
2023-04-24T00:51:35.395Z,11.20
2023-04-24T00:54:03.588Z,11.10
2023-04-24T00:56:31.768Z,11.20
2023-04-24T00:59:00.354Z,11.20
2023-04-24T01:01:28.706Z,11.20
2023-04-24T01:03:57.664Z,11.20
2023-04-24T01:06:25.998Z,11.20
2023-04-24T01:08:55.104Z,11.10
2023-04-24T01:11:24.311Z,11.00
2023-04-24T01:13:52.423Z,11.00
2023-04-24T01:16:23.148Z,11.00
2023-04-24T01:18:51.293Z,11.00
2023-04-24T01:21:22.159Z,11.00
2023-04-24T01:23:50.246Z,11.10
2023-04-24T01:26:22.271Z,11.10
2023-04-24T01:28:50.415Z,11.20
2023-04-24T01:31:18.704Z,11.20
2023-04-24T01:33:46.898Z,11.20
2023-04-24T01:40:34.570Z,11.20
2023-04-24T01:43:02.754Z,11.30
2023-04-24T01:45:31.941Z,11.30
2023-04-24T01:48:00.121Z,11.30
2023-04-24T01:50:28.312Z,11.30
2023-04-24T01:52:56.503Z,11.20
2023-04-24T01:55:24.648Z,11.30
2023-04-24T01:57:54.474Z,11.20
2023-04-24T02:00:22.524Z,11.10
2023-04-24T02:02:50.607Z,11.10
2023-04-24T02:05:18.975Z,11.10
2023-04-24T02:07:47.214Z,11.10
2023-04-24T02:10:15.233Z,11.10
2023-04-24T02:12:44.359Z,11.10
2023-04-24T02:15:12.779Z,11.10
2023-04-24T02:17:40.895Z,11.10
2023-04-24T02:20:09.324Z,11.10
2023-04-24T02:22:37.406Z,11.10
2023-04-24T02:25:05.860Z,11.10
2023-04-24T02:27:33.878Z,11.10
2023-04-24T02:30:01.928Z,11.00
2023-04-24T02:32:29.920Z,11.00
2023-04-24T02:34:57.922Z,11.00
2023-04-24T02:37:26.072Z,11.00
2023-04-24T02:39:54.108Z,11.00
2023-04-24T02:42:22.225Z,10.90
2023-04-24T02:44:50.261Z,10.90
2023-04-24T02:47:18.262Z,10.90
2023-04-24T02:49:47.950Z,10.80
2023-04-24T02:52:16.969Z,10.80
2023-04-24T02:54:45.340Z,10.80
2023-04-24T02:57:13.445Z,10.90
2023-04-24T02:59:44.151Z,10.80
2023-04-24T03:02:12.611Z,10.90
2023-04-24T03:04:42.409Z,10.90
2023-04-24T03:07:10.638Z,10.90
2023-04-24T03:09:39.032Z,10.90
2023-04-24T03:12:07.180Z,10.90
2023-04-24T03:14:35.987Z,10.80
2023-04-24T03:17:07.520Z,10.80
2023-04-24T03:19:37.861Z,10.80
2023-04-24T03:22:11.577Z,10.80
2023-04-24T03:24:40.500Z,10.80
2023-04-24T03:27:09.042Z,10.80
2023-04-24T03:29:57.655Z,10.80
2023-04-24T03:32:34.536Z,10.80
2023-04-24T03:35:03.678Z,10.80
2023-04-24T03:37:31.839Z,10.80
2023-04-24T03:40:20.544Z,10.80
2023-04-24T03:42:52.320Z,10.80
2023-04-24T03:45:25.102Z,10.70
2023-04-24T03:47:53.824Z,10.70
2023-04-24T03:50:22.546Z,10.70
2023-04-24T03:52:51.238Z,10.70
2023-04-24T03:55:30.551Z,10.70
2023-04-24T03:57:58.770Z,10.70
2023-04-24T04:00:28.272Z,10.70
2023-04-24T04:03:17.037Z,10.70
2023-04-24T04:05:45.441Z,10.70
2023-04-24T04:08:13.556Z,10.60
2023-04-24T04:10:41.669Z,10.60
2023-04-24T04:13:09.660Z,10.60
2023-04-24T04:15:38.285Z,10.60
2023-04-24T04:18:06.486Z,10.60
2023-04-24T04:20:34.928Z,10.60
2023-04-24T04:23:03.212Z,10.60
2023-04-24T04:25:54.128Z,10.60
2023-04-24T04:28:26.959Z,10.60
2023-04-24T04:30:56.134Z,10.50
2023-04-24T04:33:28.051Z,10.50
2023-04-24T04:35:59.759Z,10.50
2023-04-24T04:38:32.256Z,10.50
2023-04-24T04:41:13.090Z,10.50
2023-04-24T04:43:43.005Z,10.50
2023-04-24T04:46:13.516Z,10.50
2023-04-24T04:48:51.006Z,10.50
2023-04-24T04:51:19.112Z,10.60
2023-04-24T04:53:47.437Z,10.60
2023-04-24T04:56:15.496Z,10.60
2023-04-24T04:58:47.781Z,10.60
2023-04-24T05:01:23.687Z,10.60
2023-04-24T05:03:55.522Z,10.60
2023-04-24T05:06:24.564Z,10.60
2023-04-24T05:08:59.453Z,10.60
2023-04-24T05:11:50.339Z,10.60
2023-04-24T05:14:20.609Z,10.80
2023-04-24T05:16:53.301Z,10.80
2023-04-24T05:19:23.795Z,10.90
2023-04-24T05:21:55.057Z,10.90
2023-04-24T05:24:24.019Z,10.90
2023-04-24T05:27:14.912Z,11.00
2023-04-24T05:29:46.166Z,11.00
2023-04-24T05:32:15.249Z,11.00
2023-04-24T05:34:43.380Z,11.10
2023-04-24T05:37:12.337Z,11.10
2023-04-24T05:39:40.765Z,11.20
2023-04-24T05:42:12.218Z,11.20
2023-04-24T05:44:40.630Z,11.20
2023-04-24T05:47:08.643Z,11.20
2023-04-24T05:49:36.743Z,11.40
2023-04-24T05:52:06.393Z,11.40
2023-04-24T05:54:34.623Z,11.40
2023-04-24T05:57:06.667Z,11.50
2023-04-24T05:59:46.737Z,11.40
2023-04-24T06:02:15.393Z,11.40
2023-04-24T06:04:44.188Z,11.50
2023-04-24T06:07:13.298Z,11.50
2023-04-24T06:09:43.701Z,11.60
2023-04-24T06:12:12.112Z,11.60
2023-04-24T06:15:03.336Z,11.60
2023-04-24T06:17:49.834Z,11.60
2023-04-24T06:20:19.397Z,11.60
2023-04-24T06:22:47.578Z,11.60
2023-04-24T06:25:15.737Z,11.60
2023-04-24T06:27:43.874Z,11.50
2023-04-24T06:30:12.250Z,11.50
2023-04-24T06:32:40.481Z,11.50
2023-04-24T06:35:10.329Z,11.40
2023-04-24T06:37:38.713Z,11.30
2023-04-24T06:40:08.425Z,11.30
2023-04-24T06:42:37.396Z,11.30
2023-04-24T06:45:05.965Z,11.30
2023-04-24T06:47:34.212Z,11.20
2023-04-24T06:50:02.315Z,11.30
2023-04-24T06:52:30.495Z,11.40
2023-04-24T06:55:05.333Z,11.50
2023-04-24T06:57:36.171Z,11.50
2023-04-24T07:00:08.047Z,11.50
2023-04-24T07:02:36.277Z,11.40
2023-04-24T07:05:04.444Z,11.40
2023-04-24T07:07:32.711Z,11.50
2023-04-24T07:10:00.715Z,11.60
2023-04-24T07:12:28.789Z,11.60
2023-04-24T07:14:56.955Z,11.80
2023-04-24T07:17:25.067Z,12.00
2023-04-24T07:19:53.192Z,12.10
2023-04-24T07:22:21.284Z,12.20
2023-04-24T07:24:49.369Z,12.20
2023-04-24T07:27:17.434Z,12.00
2023-04-24T07:29:45.725Z,12.00
2023-04-24T07:32:13.963Z,11.80
2023-04-24T07:34:42.322Z,11.70
2023-04-24T07:37:10.403Z,11.70
2023-04-24T07:39:38.615Z,11.80
2023-04-24T07:42:06.689Z,11.90
2023-04-24T07:44:34.839Z,12.00
2023-04-24T07:47:02.857Z,11.90
2023-04-24T07:49:30.970Z,12.00
2023-04-24T07:51:58.990Z,12.10
2023-04-24T07:54:27.056Z,12.30
2023-04-24T07:56:55.058Z,12.60
2023-04-24T07:59:23.077Z,13.30
2023-04-24T08:01:51.137Z,13.90
2023-04-24T08:04:20.385Z,14.30
2023-04-24T08:06:52.309Z,14.50
2023-04-24T08:09:20.369Z,14.70
2023-04-24T08:11:49.016Z,14.50
2023-04-24T08:14:17.270Z,14.30
2023-04-24T08:16:45.433Z,14.20
2023-04-24T08:19:13.486Z,14.10
2023-04-24T08:21:41.531Z,13.90
2023-04-24T08:24:10.065Z,13.50
2023-04-24T08:26:38.103Z,13.40
2023-04-24T08:29:06.760Z,13.40
2023-04-24T08:31:35.020Z,13.40
2023-04-24T08:34:03.267Z,13.20
2023-04-24T08:36:43.415Z,13.00
2023-04-24T08:39:24.294Z,12.90
2023-04-24T08:41:52.845Z,12.80
2023-04-24T08:44:21.716Z,12.70
2023-04-24T08:46:50.825Z,12.70
2023-04-24T08:49:19.892Z,12.70
2023-04-24T08:51:49.913Z,12.80
2023-04-24T08:54:18.321Z,12.90
2023-04-24T08:56:47.234Z,12.90
2023-04-24T08:59:15.796Z,12.90
2023-04-24T09:01:44.100Z,12.90
2023-04-24T09:04:16.685Z,12.70
2023-04-24T09:06:45.463Z,12.40
2023-04-24T09:09:14.107Z,12.50
2023-04-24T09:11:42.279Z,12.40
2023-04-24T09:14:11.694Z,12.50
2023-04-24T09:16:39.821Z,13.20
2023-04-24T09:19:07.830Z,14.00
2023-04-24T09:21:36.537Z,14.20
2023-04-24T09:24:06.144Z,14.00
2023-04-24T09:26:35.438Z,13.70
2023-04-24T09:29:03.632Z,13.30
2023-04-24T09:31:32.038Z,12.80
2023-04-24T09:34:01.829Z,13.00
2023-04-24T09:36:39.255Z,13.20
2023-04-24T09:39:10.329Z,13.50
2023-04-24T09:41:45.537Z,13.50
2023-04-24T09:44:23.184Z,13.60
2023-04-24T09:46:52.679Z,13.90
2023-04-24T09:49:27.890Z,14.40
2023-04-24T09:52:05.867Z,14.60
2023-04-24T09:54:34.301Z,15.00
2023-04-24T09:57:02.687Z,15.00
2023-04-24T09:59:31.492Z,14.70
2023-04-24T10:02:01.011Z,14.70
2023-04-24T10:04:30.515Z,14.20
2023-04-24T10:06:59.427Z,13.80
2023-04-24T10:09:28.660Z,14.10
2023-04-24T10:11:57.161Z,14.70
2023-04-24T10:14:26.029Z,15.20
2023-04-24T10:16:57.381Z,15.70
2023-04-24T10:19:27.754Z,15.80
2023-04-24T10:21:56.951Z,16.20
2023-04-24T10:24:25.085Z,15.70
2023-04-24T10:26:53.524Z,15.10
2023-04-24T10:29:21.994Z,14.60
2023-04-24T10:31:50.197Z,14.20
2023-04-24T10:34:19.075Z,13.90
2023-04-24T10:36:50.366Z,13.70
2023-04-24T10:39:18.891Z,13.60
2023-04-24T10:41:52.084Z,13.60
2023-04-24T10:44:23.003Z,13.60
2023-04-24T10:46:55.283Z,13.70
2023-04-24T10:49:33.101Z,13.70
2023-04-24T10:52:07.376Z,13.50
2023-04-24T10:54:38.308Z,13.20
2023-04-24T10:57:24.860Z,13.10
2023-04-24T11:00:11.600Z,12.90
2023-04-24T11:02:46.013Z,12.90
2023-04-24T11:05:16.744Z,12.80
2023-04-24T11:08:07.260Z,12.80
2023-04-24T11:10:35.628Z,12.80
2023-04-24T11:13:04.377Z,12.90
2023-04-24T11:15:32.425Z,13.10
2023-04-24T11:18:00.560Z,13.50
2023-04-24T11:20:28.873Z,14.30
2023-04-24T11:22:57.416Z,15.10
2023-04-24T11:25:25.652Z,15.30
2023-04-24T11:28:05.178Z,15.40
2023-04-24T11:30:34.542Z,15.30
2023-04-24T11:33:06.607Z,14.80
2023-04-24T11:35:43.841Z,14.50
2023-04-24T11:38:24.770Z,14.40
2023-04-24T11:40:54.323Z,14.00
2023-04-24T11:43:23.063Z,13.70
2023-04-24T11:45:51.379Z,13.50
2023-04-24T11:48:23.880Z,13.30
2023-04-24T11:50:52.791Z,13.20
2023-04-24T11:53:21.931Z,13.10
2023-04-24T11:55:49.991Z,12.90
2023-04-24T11:58:22.728Z,12.70
2023-04-24T12:00:57.725Z,12.70
2023-04-24T12:03:25.866Z,12.70
2023-04-24T12:05:54.124Z,12.80
2023-04-24T12:08:31.651Z,12.90
2023-04-24T12:11:00.213Z,13.10
2023-04-24T12:13:28.198Z,13.40
2023-04-24T12:15:56.360Z,13.80
2023-04-24T12:18:25.063Z,14.30
2023-04-24T12:20:53.202Z,14.70
2023-04-24T12:23:39.878Z,14.80
2023-04-24T12:26:07.994Z,14.50
2023-04-24T12:28:39.900Z,14.40
2023-04-24T12:31:08.454Z,14.40
2023-04-24T12:33:37.763Z,14.40
2023-04-24T12:36:07.549Z,14.30
2023-04-24T12:38:42.924Z,14.20
2023-04-24T12:41:12.931Z,14.20
2023-04-24T12:43:41.318Z,14.40
2023-04-24T12:46:09.609Z,14.10
2023-04-24T12:48:37.859Z,13.70
2023-04-24T12:51:06.085Z,13.60
2023-04-24T12:53:34.240Z,13.70
2023-04-24T12:56:02.619Z,13.80
2023-04-24T12:58:31.165Z,14.00
2023-04-24T13:00:59.285Z,14.40
2023-04-24T13:03:29.582Z,14.80
2023-04-24T13:05:57.832Z,15.10
2023-04-24T13:08:25.918Z,14.70
2023-04-24T13:10:54.534Z,14.30
2023-04-24T13:13:22.811Z,14.10
2023-04-24T13:15:50.896Z,14.00
2023-04-24T13:18:18.911Z,13.60
2023-04-24T13:20:48.214Z,13.40
2023-04-24T13:23:16.273Z,13.20
2023-04-24T13:25:44.581Z,13.30
2023-04-24T13:28:12.695Z,13.30
2023-04-24T13:30:40.807Z,13.40
2023-04-24T13:33:11.218Z,13.60
2023-04-24T13:35:39.303Z,13.70
2023-04-24T13:38:11.904Z,13.70
2023-04-24T13:40:43.097Z,13.70
2023-04-24T13:43:14.357Z,13.40
2023-04-24T13:45:42.620Z,13.20
2023-04-24T13:48:11.584Z,13.00
2023-04-24T13:50:39.764Z,13.00
2023-04-24T13:53:07.790Z,12.80
2023-04-24T13:55:35.837Z,12.50
2023-04-24T13:58:04.033Z,12.70
2023-04-24T14:00:32.256Z,13.10
2023-04-24T14:03:00.438Z,13.60
2023-04-24T14:05:28.767Z,13.90
2023-04-24T14:07:56.832Z,14.20
2023-04-24T14:10:24.936Z,14.30
2023-04-24T14:12:53.075Z,14.40
2023-04-24T14:15:21.252Z,14.20
2023-04-24T14:17:50.121Z,14.30
2023-04-24T14:20:18.149Z,14.30
2023-04-24T14:22:46.249Z,14.20
2023-04-24T14:25:14.358Z,13.90
2023-04-24T14:27:42.454Z,13.60
2023-04-24T14:30:10.859Z,13.40
2023-04-24T14:32:40.542Z,13.40
2023-04-24T14:35:09.209Z,13.40
2023-04-24T14:37:38.352Z,13.10
2023-04-24T14:40:21.143Z,13.10
2023-04-24T14:42:57.947Z,13.10
2023-04-24T14:45:26.569Z,13.20
2023-04-24T14:47:54.953Z,13.10
2023-04-24T14:50:24.578Z,13.00
2023-04-24T14:52:52.937Z,12.90
2023-04-24T14:55:26.892Z,12.90
2023-04-24T14:57:55.530Z,13.00
2023-04-24T15:00:25.636Z,13.00
2023-04-24T15:02:53.903Z,13.30
2023-04-24T15:05:22.337Z,13.60
2023-04-24T15:07:52.552Z,13.90
2023-04-24T15:10:20.654Z,13.90
2023-04-24T15:12:48.680Z,13.60
2023-04-24T15:15:17.099Z,13.40
2023-04-24T15:17:45.218Z,13.40
2023-04-24T15:20:13.376Z,13.70
2023-04-24T15:22:41.547Z,13.90
2023-04-24T15:25:09.755Z,13.90
2023-04-24T15:27:42.313Z,14.00
2023-04-24T15:30:10.772Z,13.90
2023-04-24T15:32:39.272Z,13.60
2023-04-24T15:35:10.161Z,13.30
2023-04-24T15:37:39.419Z,13.10
2023-04-24T15:40:09.184Z,12.90
2023-04-24T15:42:37.344Z,12.90
2023-04-24T15:45:05.904Z,12.80
2023-04-24T15:47:37.509Z,12.70
2023-04-24T15:50:05.752Z,12.50
2023-04-24T15:52:33.781Z,12.50
2023-04-24T15:55:01.957Z,12.40
2023-04-24T15:57:29.956Z,12.40
2023-04-24T15:59:58.055Z,12.30
2023-04-24T16:02:26.252Z,12.20
2023-04-24T16:04:54.983Z,12.20
2023-04-24T16:07:23.201Z,12.20
2023-04-24T16:09:51.274Z,12.10
2023-04-24T16:12:19.321Z,12.10
2023-04-24T16:14:47.378Z,12.00
2023-04-24T16:17:15.763Z,12.00
2023-04-24T16:19:43.843Z,12.00
2023-04-24T16:22:11.865Z,12.10
2023-04-24T16:24:39.967Z,12.20
2023-04-24T16:27:08.002Z,12.20
2023-04-24T16:29:36.133Z,12.40
2023-04-24T16:32:04.195Z,12.50
2023-04-24T16:34:39.700Z,12.60
2023-04-24T16:37:12.903Z,12.60
2023-04-24T16:39:45.321Z,12.60
2023-04-24T16:42:16.955Z,12.70
2023-04-24T16:44:44.989Z,12.80
2023-04-24T16:47:15.440Z,12.80
2023-04-24T16:49:43.559Z,12.80
2023-04-24T16:52:12.563Z,12.70
2023-04-24T16:54:40.635Z,12.60
2023-04-24T16:57:12.984Z,12.50
2023-04-24T16:59:43.472Z,12.40
2023-04-24T17:02:11.792Z,12.40
2023-04-24T17:04:39.976Z,12.30
2023-04-24T17:07:08.435Z,12.10
2023-04-24T17:09:36.676Z,12.00
2023-04-24T17:12:04.781Z,11.90
2023-04-24T17:14:32.952Z,11.80
2023-04-24T17:17:01.061Z,11.80
2023-04-24T17:19:29.241Z,11.70
2023-04-24T17:22:00.046Z,11.70
2023-04-24T17:24:35.264Z,11.80
2023-04-24T17:27:13.879Z,11.80
2023-04-24T17:29:43.397Z,11.80
2023-04-24T17:32:12.666Z,11.80
2023-04-24T17:34:43.803Z,11.80
2023-04-24T17:37:11.889Z,11.80
2023-04-24T17:39:40.003Z,11.70
2023-04-24T17:42:08.155Z,11.70
2023-04-24T17:44:36.485Z,11.60
2023-04-24T17:47:06.065Z,11.60
2023-04-24T17:49:34.798Z,11.50
2023-04-24T17:52:02.868Z,11.40
2023-04-24T17:54:30.951Z,11.30
2023-04-24T17:56:59.106Z,11.20
2023-04-24T17:59:27.839Z,11.10
2023-04-24T18:01:56.042Z,11.10
2023-04-24T18:04:24.316Z,11.10
2023-04-24T18:06:52.533Z,11.00
2023-04-24T18:09:22.136Z,11.00
2023-04-24T18:11:51.203Z,10.90
2023-04-24T18:14:19.268Z,10.70
2023-04-24T18:16:47.363Z,10.60
2023-04-24T18:19:15.349Z,10.50
2023-04-24T18:21:43.404Z,10.50
2023-04-24T18:24:12.115Z,10.50
2023-04-24T18:26:40.201Z,10.40
2023-04-24T18:29:08.209Z,10.40
2023-04-24T18:31:36.368Z,10.30
2023-04-24T18:34:04.439Z,10.20
2023-04-24T18:36:32.453Z,10.10
2023-04-24T18:39:00.423Z,10.10
2023-04-24T18:41:28.531Z,10.00
2023-04-24T18:43:59.395Z,9.90
2023-04-24T18:46:27.589Z,9.90
2023-04-24T18:48:55.648Z,9.90
2023-04-24T18:51:23.816Z,9.70
2023-04-24T18:53:52.018Z,9.70
2023-04-24T18:56:20.782Z,9.70
2023-04-24T18:58:49.706Z,9.70
2023-04-24T19:01:18.130Z,9.80
2023-04-24T19:03:46.574Z,9.70
2023-04-24T19:06:14.742Z,9.60
2023-04-24T19:08:44.459Z,9.60
2023-04-24T19:11:13.051Z,9.50
2023-04-24T19:13:41.053Z,9.50
2023-04-24T19:16:09.192Z,9.50
2023-04-24T19:18:37.226Z,9.50
2023-04-24T19:21:05.337Z,9.50
2023-04-24T19:23:38.208Z,9.50
2023-04-24T19:26:15.837Z,9.40
2023-04-24T19:28:43.918Z,9.30
2023-04-24T19:31:12.014Z,9.30
2023-04-24T19:33:40.034Z,9.30
2023-04-24T19:36:08.235Z,9.30
2023-04-24T19:38:36.502Z,9.30
2023-04-24T19:41:04.753Z,9.30
2023-04-24T19:43:32.972Z,9.30
2023-04-24T19:46:01.023Z,9.30
2023-04-24T19:48:32.345Z,9.20
2023-04-24T19:51:00.716Z,9.20
2023-04-24T19:53:28.856Z,9.20
2023-04-24T19:55:57.345Z,9.10
2023-04-24T19:58:25.531Z,9.10
2023-04-24T20:00:53.669Z,9.10
2023-04-24T20:03:32.986Z,9.00
2023-04-24T20:06:02.448Z,9.00
2023-04-24T20:08:30.605Z,9.00
2023-04-24T20:10:59.039Z,9.00
2023-04-24T20:13:29.345Z,8.90
2023-04-24T20:15:58.816Z,8.90
2023-04-24T20:18:26.980Z,8.90
2023-04-24T20:20:58.126Z,8.90
2023-04-24T20:23:26.653Z,8.90
2023-04-24T20:25:59.312Z,8.80
2023-04-24T20:28:27.783Z,8.80
2023-04-24T20:30:56.092Z,8.80
2023-04-24T20:33:24.974Z,8.70
2023-04-24T20:35:56.074Z,8.60
2023-04-24T20:38:27.984Z,8.70
2023-04-24T20:40:58.097Z,8.70
2023-04-24T20:43:29.174Z,8.60
2023-04-24T20:45:58.928Z,8.60
2023-04-24T20:48:27.820Z,8.60
2023-04-24T20:50:55.961Z,8.60
2023-04-24T20:53:24.412Z,8.50
2023-04-24T20:55:52.661Z,8.50
2023-04-24T20:58:22.230Z,8.30
2023-04-24T21:00:50.601Z,8.30
2023-04-24T21:03:18.747Z,8.20
2023-04-24T21:05:47.151Z,8.30
2023-04-24T21:08:15.263Z,8.30
2023-04-24T21:10:43.392Z,8.30
2023-04-24T21:13:11.514Z,8.30
2023-04-24T21:15:39.652Z,8.20
2023-04-24T21:18:07.742Z,8.20
2023-04-24T21:20:35.883Z,8.20
2023-04-24T21:23:03.941Z,8.20
2023-04-24T21:25:32.568Z,8.20
2023-04-24T21:28:01.028Z,8.30
2023-04-24T21:30:29.279Z,8.40
2023-04-24T21:32:58.333Z,8.40
2023-04-24T21:35:26.385Z,8.50
2023-04-24T21:37:54.406Z,8.50
2023-04-24T21:40:22.480Z,8.50
2023-04-24T21:42:50.684Z,8.60
2023-04-24T21:45:18.767Z,8.60
2023-04-24T21:47:46.912Z,8.60
2023-04-24T21:50:14.988Z,8.60
2023-04-24T21:52:42.996Z,8.70
2023-04-24T21:55:11.204Z,8.70
2023-04-24T21:57:39.348Z,8.70
2023-04-24T22:00:09.370Z,8.70
2023-04-24T22:02:37.639Z,8.60
2023-04-24T22:05:06.636Z,8.70
2023-04-24T22:07:35.429Z,8.70
2023-04-24T22:10:03.848Z,8.70
2023-04-24T22:12:31.983Z,8.80
2023-04-24T22:15:00.016Z,8.80
2023-04-24T22:17:28.021Z,8.90
2023-04-24T22:19:56.051Z,8.90
2023-04-24T22:22:24.081Z,9.00
2023-04-24T22:24:52.307Z,9.00
2023-04-24T22:27:20.327Z,8.90
2023-04-24T22:29:48.354Z,9.00
2023-04-24T22:32:16.394Z,9.00
2023-04-24T22:34:44.456Z,9.00
2023-04-24T22:37:15.221Z,9.00
2023-04-24T22:39:46.133Z,8.90
2023-04-24T22:42:14.290Z,8.90
2023-04-24T22:44:42.754Z,8.80
2023-04-24T22:47:10.920Z,8.90
2023-04-24T22:49:39.090Z,8.90
2023-04-24T22:52:07.155Z,8.90
2023-04-24T22:54:36.172Z,8.90
2023-04-24T22:57:05.303Z,9.00
2023-04-24T22:59:33.343Z,9.00
2023-04-24T23:02:01.445Z,9.00
2023-04-24T23:04:30.422Z,9.00
2023-04-24T23:06:58.611Z,9.00
2023-04-24T23:09:26.627Z,9.10
2023-04-24T23:11:54.623Z,9.10
2023-04-24T23:14:23.189Z,9.10
2023-04-24T23:16:51.615Z,9.20
2023-04-24T23:19:19.742Z,9.20
2023-04-24T23:21:47.859Z,9.20
2023-04-24T23:24:15.868Z,9.10
2023-04-24T23:26:43.858Z,9.10
2023-04-24T23:29:11.900Z,9.10
2023-04-24T23:31:39.992Z,9.10
2023-04-24T23:34:08.063Z,9.00
2023-04-24T23:36:36.132Z,9.00
2023-04-24T23:39:06.460Z,9.00
2023-04-24T23:41:34.522Z,9.10
2023-04-24T23:44:02.545Z,9.10
2023-04-24T23:46:30.643Z,9.20
2023-04-24T23:48:58.689Z,9.20
2023-04-24T23:51:27.026Z,9.20
2023-04-24T23:53:55.093Z,9.10
2023-04-24T23:56:25.704Z,9.10
2023-04-24T23:58:54.598Z,9.10
